Time;durP1;ratioP1;P1;durP2;ratioP2;P2;SDS_P1;SDS_P2;PMS_P1;PMS_P2;Temp;Humidity;BMP_temperature;BMP_pressure;BME280_temperature;BME280_humidity;BME280_pressure;Samples;Min_cycle;Max_cycle;Signal;HPM_P1;HPM_P2
2022/03/09 00:02:08;;;;;;;12.95;5.78;;;0.60;76.80;;;;;;5034976;28;20459;-84
2022/03/09 00:04:33;;;;;;;10.60;4.90;;;0.70;77.10;;;;;;5053473;28;21981;-87
2022/03/09 00:06:59;;;;;;;6.53;4.70;;;0.60;77.20;;;;;;5040990;28;20740;-85
2022/03/09 00:09:24;;;;;;;13.90;7.50;;;0.70;75.40;;;;;;5033413;28;20196;-88
2022/03/09 00:11:51;;;;;;;14.40;8.30;;;;;;;;;;5036265;28;20281;-86
2022/03/09 00:14:16;;;;;;;11.93;7.65;;;0.90;74.60;;;;;;5033022;28;20170;-84
2022/03/09 00:16:46;;;;;;;10.27;7.13;;;0.90;75.50;;;;;;5043115;28;20205;-85
2022/03/09 00:19:11;;;;;;;11.88;6.95;;;1.00;73.90;;;;;;5053998;28;20255;-85
2022/03/09 00:21:37;;;;;;;11.50;6.77;;;1.00;74.10;;;;;;5053959;28;20276;-88
2022/03/09 00:24:03;;;;;;;10.73;6.47;;;0.90;74.00;;;;;;5038212;28;20189;-89
2022/03/09 00:26:29;;;;;;;13.43;6.72;;;0.80;74.40;;;;;;5033228;28;20212;-85
2022/03/09 00:28:54;;;;;;;12.93;7.27;;;0.60;75.20;;;;;;5054768;28;20188;-88
2022/03/09 00:31:20;;;;;;;14.20;7.70;;;0.30;77.50;;;;;;5052692;28;20224;-87
2022/03/09 00:33:45;;;;;;;12.27;6.93;;;-0.10;79.50;;;;;;5040899;28;20181;-88
2022/03/09 00:36:11;;;;;;;13.97;7.73;;;-0.30;81.60;;;;;;5036149;28;20189;-87
2022/03/09 00:38:36;;;;;;;12.93;7.97;;;-0.40;83.80;;;;;;5037124;28;20198;-88
2022/03/09 00:41:02;;;;;;;15.70;8.87;;;-0.60;85.00;;;;;;5032146;28;20205;-85
2022/03/09 00:43:28;;;;;;;17.50;8.40;;;-0.70;87.00;;;;;;5032391;28;20280;-86
2022/03/09 00:45:54;;;;;;;16.67;6.82;;;-0.80;88.60;;;;;;5040678;28;20621;-86
2022/03/09 00:48:20;;;;;;;20.93;8.57;;;-0.80;90.00;;;;;;5033547;28;20173;-85
2022/03/09 00:50:46;;;;;;;15.53;7.93;;;-1.00;90.60;;;;;;5053036;28;20190;-89
2022/03/09 00:53:12;;;;;;;14.70;8.10;;;-1.00;90.90;;;;;;5051719;28;20181;-86
2022/03/09 00:55:38;;;;;;;14.80;7.00;;;-1.10;91.60;;;;;;5039997;28;20197;-85
2022/03/09 00:58:05;;;;;;;12.52;6.22;;;-1.10;92.30;;;;;;5050058;28;21044;-88
2022/03/09 01:00:31;;;;;;;11.85;5.53;;;-1.20;93.40;;;;;;5056852;28;20556;-88
2022/03/09 01:02:56;;;;;;;9.50;6.10;;;-1.30;95.10;;;;;;5040963;28;20192;-88
2022/03/09 01:05:22;;;;;;;9.17;5.33;;;-1.30;96.50;;;;;;5041700;28;20468;-87
2022/03/09 01:07:47;;;;;;;12.27;6.03;;;-1.30;97.40;;;;;;5040515;28;20203;-86
2022/03/09 01:10:13;;;;;;;9.90;5.40;;;-1.30;98.40;;;;;;5056619;28;20185;-87
2022/03/09 01:12:39;;;;;;;14.53;5.23;;;-1.40;99.20;;;;;;5051946;28;20200;-88
2022/03/09 01:15:06;;;;;;;11.53;5.20;;;-1.40;99.40;;;;;;5034491;28;20459;-87
2022/03/09 01:17:31;;;;;;;18.70;5.70;;;-1.40;99.60;;;;;;5052653;28;20232;-87
2022/03/09 01:19:58;;;;;;;8.40;4.13;;;-1.60;99.90;;;;;;5041883;28;20173;-90
2022/03/09 01:22:23;;;;;;;8.95;4.15;;;-1.70;99.90;;;;;;5047572;28;20169;-87
2022/03/09 01:24:49;;;;;;;8.30;5.03;;;-1.80;99.90;;;;;;5046705;28;20199;-89
2022/03/09 01:27:14;;;;;;;8.67;5.00;;;-1.80;99.90;;;;;;5045718;28;20177;-88
2022/03/09 01:29:40;;;;;;;19.53;6.73;;;-1.90;99.90;;;;;;5046779;28;20196;-89
2022/03/09 01:32:06;;;;;;;11.73;6.13;;;-2.00;99.90;;;;;;5064443;28;20205;-86
2022/03/09 01:34:32;;;;;;;15.93;5.10;;;-2.10;99.90;;;;;;5064737;28;20658;-86
2022/03/09 01:36:57;;;;;;;10.53;5.80;;;-2.10;99.90;;;;;;5046741;28;20460;-86
2022/03/09 01:39:23;;;;;;;8.77;4.97;;;-2.10;99.90;;;;;;5046958;28;20169;-88
2022/03/09 01:41:49;;;;;;;15.20;5.13;;;-1.20;99.90;;;;;;5063540;28;20240;-89
2022/03/09 01:44:18;;;;;;;13.68;5.80;;;-2.20;99.90;;;;;;5046872;28;20176;-87
2022/03/09 01:46:47;;;;;;;12.13;5.35;;;-2.20;99.90;;;;;;5045936;28;20160;-87
2022/03/09 01:49:13;;;;;;;9.65;5.32;;;-2.20;99.90;;;;;;5045828;28;20201;-87
2022/03/09 01:51:41;;;;;;;14.07;6.07;;;-2.10;99.90;;;;;;5044761;28;20204;-87
2022/03/09 01:54:07;;;;;;;11.00;6.10;;;-2.10;99.90;;;;;;5063253;28;20418;-87
2022/03/09 01:56:33;;;;;;;14.67;6.10;;;-2.20;99.90;;;;;;5046179;28;20153;-87
2022/03/09 01:59:02;;;;;;;16.80;6.45;;;-2.20;99.90;;;;;;5046095;28;20762;-87
2022/03/09 02:01:34;;;;;;;12.52;5.80;;;-2.20;99.90;;;;;;5044954;28;20196;-84
2022/03/09 02:04:01;;;;;;;10.93;6.53;;;-2.10;99.90;;;;;;5043224;28;20540;-86
2022/03/09 02:06:26;;;;;;;11.40;6.22;;;-2.00;99.90;;;;;;5039005;28;20185;-89
2022/03/09 02:11:38;;;;;;;9.60;6.70;;;-2.00;99.90;;;;;;5058405;28;20295;-88
2022/03/09 02:14:04;;;;;;;11.40;5.53;;;-2.00;99.90;;;;;;5066534;28;20248;-87
2022/03/09 02:16:30;;;;;;;9.25;6.10;;;-2.00;99.90;;;;;;5045993;28;20180;-88
2022/03/09 02:18:55;;;;;;;10.20;6.30;;;-2.10;99.90;;;;;;5047053;28;20580;-89
2022/03/09 02:21:26;;;;;;;17.63;7.80;;;-2.10;99.90;;;;;;5040261;28;20221;-89
2022/03/09 02:23:55;;;;;;;15.85;7.95;;;-2.10;99.90;;;;;;5052123;28;20185;-87
2022/03/09 02:26:22;;;;;;;11.82;6.65;;;-1.90;99.90;;;;;;5038122;28;20197;-88
2022/03/09 02:28:48;;;;;;;8.20;4.85;;;-2.00;99.90;;;;;;5028301;28;20188;-90
2022/03/09 02:31:13;;;;;;;8.53;5.20;;;-2.00;99.90;;;;;;5057218;28;20441;-88
2022/03/09 02:33:44;;;;;;;13.30;5.80;;;-2.10;99.90;;;;;;5044047;28;20430;-86
2022/03/09 02:36:10;;;;;;;15.00;6.07;;;-2.10;99.90;;;;;;5041579;28;20442;-86
2022/03/09 02:38:36;;;;;;;13.30;6.70;;;-2.20;99.90;;;;;;5044219;28;20200;-87
2022/03/09 02:41:01;;;;;;;12.40;7.13;;;-2.30;99.90;;;;;;5040364;28;20327;-86
2022/03/09 02:43:27;;;;;;;11.03;6.80;;;-2.40;99.90;;;;;;5036354;28;20178;-84
2022/03/09 02:45:52;;;;;;;11.23;7.17;;;-2.30;99.90;;;;;;5053343;28;20181;-85
2022/03/09 02:48:18;;;;;;;16.53;7.33;;;-2.30;99.90;;;;;;5035545;28;20884;-84
2022/03/09 02:50:43;;;;;;;10.30;6.73;;;-2.30;99.90;;;;;;5039947;28;20742;-87
2022/03/09 02:53:09;;;;;;;12.67;6.43;;;-2.30;99.90;;;;;;5059813;28;20589;-88
2022/03/09 02:55:35;;;;;;;8.53;5.73;;;-2.30;99.90;;;;;;5042738;28;20207;-88
2022/03/09 02:58:01;;;;;;;9.70;5.43;;;-2.30;99.90;;;;;;5050982;28;20209;-88
2022/03/09 03:00:26;;;;;;;11.53;6.03;;;-2.30;99.90;;;;;;5041072;28;20193;-87
2022/03/09 03:02:52;;;;;;;14.07;6.80;;;-2.20;99.90;;;;;;5033132;28;20190;-88
2022/03/09 03:05:18;;;;;;;13.97;6.60;;;;;;;;;;5043043;28;20466;-90
2022/03/09 03:07:44;;;;;;;13.90;6.27;;;-2.20;99.90;;;;;;5042774;28;20173;-89
2022/03/09 03:10:09;;;;;;;12.93;5.57;;;-2.20;99.90;;;;;;5045242;28;20439;-90
2022/03/09 03:12:35;;;;;;;13.70;6.47;;;-2.30;99.90;;;;;;5045384;28;20493;-89
2022/03/09 03:15:02;;;;;;;21.60;8.10;;;-2.30;99.90;;;;;;5045073;28;20227;-87
2022/03/09 03:17:28;;;;;;;10.95;6.55;;;-2.20;99.90;;;;;;5045655;28;20216;-88
2022/03/09 03:19:53;;;;;;;12.87;5.47;;;-2.30;99.90;;;;;;5050075;28;20169;-89
2022/03/09 03:22:19;;;;;;;11.23;7.10;;;-2.30;99.90;;;;;;5050363;28;20202;-91
2022/03/09 03:24:45;;;;;;;15.50;7.87;;;-2.40;99.90;;;;;;5050670;28;20652;-89
2022/03/09 03:27:11;;;;;;;12.40;6.97;;;;;;;;;;5068545;28;20176;-88
2022/03/09 03:29:36;;;;;;;13.73;7.10;;;-2.60;99.90;;;;;;5053416;28;20272;-89
2022/03/09 03:32:02;;;;;;;11.30;6.80;;;-2.60;99.90;;;;;;5034709;28;20198;-88
2022/03/09 03:34:28;;;;;;;18.23;7.63;;;;;;;;;;5062087;28;20180;-89
2022/03/09 03:37:00;;;;;;;11.32;6.05;;;-2.50;99.90;;;;;;5048920;28;20208;-88
2022/03/09 03:39:26;;;;;;;14.85;7.03;;;-2.50;99.90;;;;;;5067808;28;20183;-89
2022/03/09 03:41:52;;;;;;;11.30;5.17;;;-2.60;99.90;;;;;;5048120;28;20630;-87
2022/03/09 03:44:17;;;;;;;8.63;4.90;;;-2.80;99.90;;;;;;5049372;28;20200;-90
2022/03/09 03:46:44;;;;;;;11.37;6.10;;;-3.00;99.90;;;;;;5049686;28;20268;-90
2022/03/09 03:49:09;;;;;;;9.77;5.15;;;-3.00;99.90;;;;;;5048821;28;20169;-89
2022/03/09 03:51:35;;;;;;;9.80;5.40;;;-3.00;99.90;;;;;;5048798;28;20193;-88
2022/03/09 03:54:00;;;;;;;11.93;6.20;;;-3.00;99.90;;;;;;5057066;28;20560;-90
2022/03/09 03:56:26;;;;;;;8.00;5.20;;;-3.00;99.90;;;;;;5047044;28;20174;-90
2022/03/09 03:58:52;;;;;;;11.77;5.80;;;-3.00;99.90;;;;;;5052970;28;20213;-89
2022/03/09 04:01:17;;;;;;;13.27;6.77;;;-2.90;99.90;;;;;;5063185;28;20200;-89
2022/03/09 04:03:43;;;;;;;14.10;7.03;;;-3.00;99.90;;;;;;5064444;28;20447;-93
2022/03/09 04:06:09;;;;;;;8.20;4.50;;;;;;;;;;5030112;28;20193;-89
2022/03/09 04:08:34;;;;;;;14.87;7.13;;;-3.00;99.90;;;;;;5030470;28;20169;-91
2022/03/09 04:11:00;;;;;;;11.53;5.90;;;-3.20;99.90;;;;;;5029884;28;20539;-91
2022/03/09 04:13:26;;;;;;;12.17;6.43;;;;;;;;;;5029509;28;20242;-88
2022/03/09 04:15:51;;;;;;;14.80;6.40;;;-3.10;99.90;;;;;;5040812;28;20246;-86
2022/03/09 04:18:20;;;;;;;14.47;7.37;;;-3.00;99.90;;;;;;5047704;28;20495;-89
2022/03/09 04:20:46;;;;;;;11.73;6.80;;;;;;;;;;5048256;28;20229;-89
2022/03/09 04:23:12;;;;;;;15.32;6.97;;;-3.10;99.90;;;;;;5048286;28;20226;-89
2022/03/09 04:25:38;;;;;;;13.85;7.07;;;-3.00;99.90;;;;;;5048805;28;20165;-90
2022/03/09 04:28:04;;;;;;;14.93;7.00;;;-3.10;99.90;;;;;;5047852;28;20196;-92
2022/03/09 04:30:30;;;;;;;12.45;6.68;;;-3.10;99.90;;;;;;5046602;28;20431;-90
2022/03/09 04:32:56;;;;;;;12.07;6.27;;;;;;;;;;5047347;28;20282;-90
2022/03/09 04:35:21;;;;;;;11.70;6.53;;;-3.10;99.90;;;;;;5057677;28;20169;-89
2022/03/09 04:37:48;;;;;;;10.47;5.63;;;-3.10;99.90;;;;;;5047972;28;20465;-89
2022/03/09 04:40:14;;;;;;;17.50;6.82;;;-3.20;99.90;;;;;;5050215;28;20170;-87
2022/03/09 04:42:39;;;;;;;11.80;6.60;;;-3.20;99.90;;;;;;5048802;28;20192;-89
2022/03/09 04:45:05;;;;;;;14.97;7.93;;;-3.10;99.90;;;;;;5047821;28;20165;-88
2022/03/09 04:47:31;;;;;;;14.13;8.10;;;;;;;;;;5047893;28;20424;-88
2022/03/09 04:49:57;;;;;;;14.00;8.35;;;;;;;;;;5047370;28;20165;-87
2022/03/09 04:52:30;;;;;;;20.20;8.53;;;-2.80;99.90;;;;;;5065072;28;20207;-89
2022/03/09 04:54:56;;;;;;;16.17;8.65;;;;;;;;;;5047572;28;20420;-89
2022/03/09 04:57:22;;;;;;;18.17;8.60;;;;;;;;;;5047093;28;20209;-89
2022/03/09 04:59:49;;;;;;;18.00;9.00;;;;;;;;;;5047168;28;20490;-90
2022/03/09 05:02:15;;;;;;;20.77;11.13;;;;;;;;;;5046037;28;20919;-87
2022/03/09 05:04:41;;;;;;;14.27;8.27;;;;;;;;;;5045386;28;20181;-89
2022/03/09 05:07:07;;;;;;;32.10;14.40;;;-3.20;99.90;;;;;;5044943;28;20207;-89
2022/03/09 05:09:34;;;;;;;22.67;11.30;;;;;;;;;;5061867;28;20392;-88
2022/03/09 05:12:00;;;;;;;27.70;15.02;;;-3.20;99.90;;;;;;5044143;28;20261;-89
2022/03/09 05:14:25;;;;;;;28.20;14.00;;;-3.30;99.90;;;;;;5047370;28;20177;-88
2022/03/09 05:16:51;;;;;;;25.73;13.33;;;-3.40;99.90;;;;;;5047129;28;20419;-88
2022/03/09 05:19:16;;;;;;;26.57;14.00;;;-3.50;99.90;;;;;;5046902;28;20184;-90
2022/03/09 05:21:42;;;;;;;29.63;13.43;;;;;;;;;;5046788;28;20197;-89
2022/03/09 05:24:08;;;;;;;18.27;9.73;;;-3.60;99.90;;;;;;5046990;28;20178;-90
2022/03/09 05:26:33;;;;;;;19.03;9.70;;;-3.70;99.90;;;;;;5046957;28;20165;-90
2022/03/09 05:29:00;;;;;;;22.30;10.97;;;-3.70;99.90;;;;;;5047290;28;20173;-87
2022/03/09 05:31:25;;;;;;;18.52;9.50;;;-3.80;99.90;;;;;;5049800;28;20265;-86
2022/03/09 05:33:52;;;;;;;16.83;8.57;;;-3.70;99.90;;;;;;5063517;28;20169;-87
2022/03/09 05:36:18;;;;;;;19.92;10.20;;;;;;;;;;5048426;28;20173;-87
2022/03/09 05:38:46;;;;;;;18.40;10.63;;;-3.80;99.90;;;;;;5048402;28;20197;-88
2022/03/09 05:41:12;;;;;;;21.23;9.40;;;;;;;;;;5040206;28;20289;-85
2022/03/09 05:43:38;;;;;;;24.88;9.85;;;;;;;;;;5035334;28;20181;-86
2022/03/09 05:46:04;;;;;;;17.00;9.30;;;-4.10;99.90;;;;;;5023547;28;20178;-86
2022/03/09 05:48:30;;;;;;;18.77;8.82;;;;;;;;;;5031877;28;21133;-86
2022/03/09 05:50:56;;;;;;;22.13;10.70;;;-4.20;99.90;;;;;;5045035;28;20197;-83
2022/03/09 05:53:21;;;;;;;17.40;9.03;;;-4.20;99.90;;;;;;5043467;28;20443;-85
2022/03/09 05:55:47;;;;;;;16.57;7.50;;;-4.10;99.90;;;;;;5031049;28;20728;-86
2022/03/09 05:58:12;;;;;;;19.60;9.07;;;-4.10;99.90;;;;;;5029602;28;20186;-86
2022/03/09 06:00:38;;;;;;;12.67;9.20;;;-4.10;99.90;;;;;;5045004;28;20642;-84
2022/03/09 06:03:03;;;;;;;17.13;9.03;;;-4.20;99.90;;;;;;5026891;28;20201;-86
2022/03/09 06:05:29;;;;;;;15.23;8.63;;;-4.20;99.90;;;;;;5047446;28;20193;-86
2022/03/09 06:07:54;;;;;;;23.77;10.13;;;-4.20;99.90;;;;;;5019141;28;20658;-83
2022/03/09 06:10:20;;;;;;;14.10;8.30;;;-4.10;99.90;;;;;;5043817;28;20188;-83
2022/03/09 06:12:45;;;;;;;20.40;8.80;;;-4.00;99.90;;;;;;5040936;28;20209;-84
2022/03/09 06:15:11;;;;;;;17.63;8.10;;;-3.70;99.90;;;;;;5029436;28;20185;-84
2022/03/09 06:17:44;;;;;;;24.00;10.50;;;-2.70;99.90;;;;;;5026167;28;20197;-84
2022/03/09 06:20:11;;;;;;;17.58;8.25;;;-1.10;99.90;;;;;;5033826;28;20182;-84
2022/03/09 06:22:36;;;;;;;21.90;8.68;;;0.50;99.90;;;;;;5042312;28;20673;-85
2022/03/09 06:25:02;;;;;;;14.50;9.00;;;1.90;99.90;;;;;;5024363;28;20174;-84
2022/03/09 06:27:28;;;;;;;14.70;9.37;;;3.20;99.90;;;;;;5026347;28;20234;-84
2022/03/09 06:29:55;;;;;;;18.77;9.40;;;4.70;99.90;;;;;;5031979;28;20189;-84
2022/03/09 06:32:21;;;;;;;15.13;9.43;;;5.90;99.90;;;;;;5041909;28;20202;-85
2022/03/09 06:34:46;;;;;;;16.73;10.20;;;6.40;97.00;;;;;;5027240;28;20191;-84
2022/03/09 06:37:12;;;;;;;16.03;9.30;;;7.50;95.30;;;;;;5024655;28;20208;-85
2022/03/09 06:39:37;;;;;;;18.33;8.93;;;7.00;86.00;;;;;;5040471;28;20189;-84
2022/03/09 06:42:04;;;;;;;18.20;8.60;;;6.00;84.70;;;;;;5031707;28;20198;-84
2022/03/09 06:44:31;;;;;;;16.58;10.07;;;5.60;86.20;;;;;;5018453;28;20258;-87
2022/03/09 06:46:57;;;;;;;15.70;8.82;;;6.10;86.00;;;;;;5020939;28;20243;-85
2022/03/09 06:49:22;;;;;;;19.33;9.57;;;7.30;86.30;;;;;;5024799;28;20308;-85
2022/03/09 06:51:48;;;;;;;20.30;10.27;;;9.20;85.00;;;;;;5028901;28;20207;-87
2022/03/09 06:54:13;;;;;;;17.00;9.87;;;11.30;78.50;;;;;;5027953;28;20277;-86
2022/03/09 06:56:38;;;;;;;15.60;9.60;;;13.00;72.80;;;;;;5024643;28;20851;-85
2022/03/09 06:59:04;;;;;;;18.23;10.83;;;14.20;61.70;;;;;;5040585;28;20177;-85
2022/03/09 07:01:30;;;;;;;15.82;10.40;;;14.50;57.60;;;;;;5027683;28;20204;-85
2022/03/09 07:03:55;;;;;;;17.07;11.00;;;15.70;55.20;;;;;;5024289;28;20665;-83
2022/03/09 07:06:21;;;;;;;20.50;13.37;;;16.60;52.90;;;;;;5044400;28;20258;-87
2022/03/09 07:08:46;;;;;;;16.23;10.50;;;16.40;48.40;;;;;;5026790;28;20185;-82
2022/03/09 07:11:12;;;;;;;15.43;10.77;;;;;;;;;;5041089;28;20350;-85
2022/03/09 07:13:38;;;;;;;16.70;10.63;;;15.80;45.90;;;;;;5044133;28;20191;-85
2022/03/09 07:16:04;;;;;;;17.40;10.73;;;16.10;47.50;;;;;;5029718;28;20658;-86
2022/03/09 07:18:29;;;;;;;15.90;10.97;;;17.70;46.40;;;;;;5034888;28;20200;-86
2022/03/09 07:20:55;;;;;;;16.10;11.30;;;15.20;44.20;;;;;;5030766;28;20649;-85
2022/03/09 07:23:20;;;;;;;17.20;11.37;;;14.30;45.30;;;;;;5027639;28;20315;-83
2022/03/09 07:25:46;;;;;;;17.17;11.00;;;14.70;47.40;;;;;;5034217;28;20204;-87
2022/03/09 07:28:11;;;;;;;13.73;10.10;;;15.70;46.40;;;;;;5046701;28;20657;-85
2022/03/09 07:30:37;;;;;;;26.80;13.67;;;17.00;46.50;;;;;;5030204;28;20272;-86
2022/03/09 07:33:02;;;;;;;17.73;11.90;;;16.90;45.50;;;;;;5041845;28;20209;-85
2022/03/09 07:35:28;;;;;;;18.80;13.57;;;16.40;42.90;;;;;;5024987;28;20229;-84
2022/03/09 07:37:53;;;;;;;17.77;11.30;;;15.90;44.30;;;;;;5023697;28;20217;-84
2022/03/09 07:40:20;;;;;;;21.20;13.80;;;16.70;43.40;;;;;;5044699;28;20239;-84
2022/03/09 07:42:46;;;;;;;23.20;12.30;;;16.60;43.60;;;;;;5027271;28;20872;-86
2022/03/09 07:45:11;;;;;;;19.23;11.80;;;17.30;44.00;;;;;;5042296;28;20963;-86
2022/03/09 07:47:37;;;;;;;19.00;11.40;;;18.00;42.80;;;;;;5024668;28;20273;-86
2022/03/09 07:50:05;;;;;;;18.53;11.80;;;18.10;42.00;;;;;;5020350;28;20185;-86
2022/03/09 07:52:31;;;;;;;16.87;12.50;;;17.20;41.10;;;;;;5032255;28;21003;-85
2022/03/09 07:54:56;;;;;;;16.77;10.47;;;16.00;41.80;;;;;;5040135;28;20463;-84
2022/03/09 07:57:22;;;;;;;15.10;8.53;;;16.90;40.40;;;;;;5024677;28;20225;-83
2022/03/09 07:59:47;;;;;;;12.20;8.93;;;17.40;39.00;;;;;;5022617;28;20182;-84
2022/03/09 08:02:13;;;;;;;11.93;8.73;;;16.70;38.90;;;;;;5058431;28;20227;-86
2022/03/09 08:04:39;;;;;;;13.83;9.03;;;15.60;39.90;;;;;;5024951;28;20275;-87
2022/03/09 08:07:04;;;;;;;11.60;8.40;;;15.50;39.90;;;;;;5044095;28;20186;-86
2022/03/09 08:09:30;;;;;;;17.23;8.37;;;15.70;39.70;;;;;;5037389;28;20185;-86
2022/03/09 08:11:55;;;;;;;11.17;7.93;;;15.10;39.50;;;;;;5032212;28;20204;-86
2022/03/09 08:14:21;;;;;;;13.60;8.70;;;13.40;39.80;;;;;;5030208;28;20188;-82
2022/03/09 08:16:48;;;;;;;14.53;8.30;;;13.80;42.40;;;;;;5046876;28;20239;-86
2022/03/09 08:19:14;;;;;;;14.70;8.52;;;14.50;41.60;;;;;;5027688;28;20270;-87
2022/03/09 08:21:39;;;;;;;14.73;8.97;;;15.00;41.50;;;;;;5046727;28;20678;-85
2022/03/09 08:24:06;;;;;;;13.50;9.30;;;15.90;39.80;;;;;;5046740;28;20264;-84
2022/03/09 08:26:32;;;;;;;12.73;8.85;;;16.40;40.10;;;;;;5046978;28;20200;-86
2022/03/09 08:28:57;;;;;;;12.57;8.77;;;16.00;40.00;;;;;;5032403;28;20203;-87
2022/03/09 08:31:24;;;;;;;14.60;9.07;;;16.00;39.20;;;;;;5048145;28;20205;-86
2022/03/09 08:33:49;;;;;;;13.73;8.87;;;16.60;40.40;;;;;;5049696;28;20170;-84
2022/03/09 08:36:15;;;;;;;14.27;9.40;;;17.00;38.70;;;;;;5035851;28;20424;-85
2022/03/09 08:38:40;;;;;;;15.60;9.30;;;16.30;39.30;;;;;;5048324;28;20249;-85
2022/03/09 08:41:06;;;;;;;11.90;8.47;;;17.80;38.90;;;;;;5033627;28;20201;-88
2022/03/09 08:43:32;;;;;;;14.50;8.80;;;19.10;38.70;;;;;;5030483;28;20181;-86
2022/03/09 08:45:58;;;;;;;17.10;11.27;;;;;;;;;;5046577;28;20237;-85
2022/03/09 08:48:26;;;;;;;16.60;10.17;;;19.20;34.10;;;;;;5046771;28;20231;-84
2022/03/09 08:50:52;;;;;;;13.90;9.60;;;;;;;;;;5040212;28;20936;-86
2022/03/09 08:53:17;;;;;;;16.23;9.97;;;17.00;34.90;;;;;;5048625;28;20850;-86
2022/03/09 08:55:44;;;;;;;15.47;10.13;;;16.50;36.90;;;;;;5028077;28;20515;-84
2022/03/09 08:58:09;;;;;;;14.03;10.57;;;15.50;37.60;;;;;;5035813;28;20215;-85
2022/03/09 09:00:35;;;;;;;14.57;9.33;;;15.80;38.00;;;;;;5032780;28;20788;-86
2022/03/09 09:03:01;;;;;;;14.23;8.87;;;16.20;37.80;;;;;;5028581;28;20212;-88
2022/03/09 09:05:26;;;;;;;13.20;9.83;;;17.10;37.30;;;;;;5046865;28;20247;-86
2022/03/09 09:07:52;;;;;;;21.57;9.10;;;17.60;37.60;;;;;;5048470;28;20295;-85
2022/03/09 09:10:17;;;;;;;14.07;10.40;;;17.80;36.70;;;;;;5043535;28;20188;-85
2022/03/09 09:12:46;;;;;;;15.50;11.27;;;;;;;;;;5041244;28;20562;-83
2022/03/09 09:15:11;;;;;;;17.93;10.97;;;18.40;34.70;;;;;;5025309;28;20618;-87
2022/03/09 09:17:37;;;;;;;11.73;9.57;;;;;;;;;;5027424;28;20530;-85
2022/03/09 09:20:04;;;;;;;11.73;9.60;;;18.20;35.00;;;;;;5024464;28;20215;-83
2022/03/09 09:22:29;;;;;;;10.60;8.17;;;;;;;;;;5045461;28;20456;-86
2022/03/09 09:24:55;;;;;;;16.03;10.07;;;17.10;34.40;;;;;;5025089;28;20450;-86
2022/03/09 09:27:21;;;;;;;12.03;9.23;;;;;;;;;;5032874;28;20447;-82
2022/03/09 09:29:46;;;;;;;12.30;9.40;;;14.30;33.60;;;;;;5047036;28;20181;-87
2022/03/09 09:32:14;;;;;;;19.23;9.93;;;13.90;36.80;;;;;;5035407;28;20481;-86
2022/03/09 09:34:39;;;;;;;17.43;11.17;;;14.70;38.30;;;;;;5034568;28;20191;-85
2022/03/09 09:37:05;;;;;;;13.73;9.13;;;13.50;37.50;;;;;;5034094;28;20940;-86
2022/03/09 09:39:30;;;;;;;16.00;10.47;;;13.40;38.60;;;;;;5025758;28;20178;-85
2022/03/09 09:41:57;;;;;;;16.50;10.80;;;13.60;39.30;;;;;;5031846;28;20209;-86
2022/03/09 09:44:23;;;;;;;16.83;11.00;;;14.10;38.40;;;;;;5047231;28;20192;-86
2022/03/09 09:46:50;;;;;;;16.53;11.30;;;14.40;38.70;;;;;;5033290;28;20438;-87
2022/03/09 09:49:23;;;;;;;18.60;11.63;;;15.70;38.10;;;;;;5050033;28;20957;-86
2022/03/09 09:51:51;;;;;;;13.87;10.53;;;15.90;37.30;;;;;;5037609;28;20989;-87
2022/03/09 09:54:18;;;;;;;16.60;12.07;;;15.90;36.80;;;;;;5027880;28;20446;-88
2022/03/09 09:56:44;;;;;;;17.07;10.13;;;15.00;37.20;;;;;;5049022;28;20960;-85
2022/03/09 09:59:10;;;;;;;17.13;11.23;;;15.00;35.50;;;;;;5037354;28;20536;-87
2022/03/09 10:01:36;;;;;;;20.27;12.60;;;;;;;;;;5028398;28;21056;-89
2022/03/09 10:04:03;;;;;;;18.10;11.23;;;15.40;35.40;;;;;;5028784;28;20757;-85
2022/03/09 10:06:30;;;;;;;13.87;10.53;;;16.00;37.50;;;;;;5049516;28;20447;-87
2022/03/09 10:09:05;;;;;;;15.77;11.30;;;15.60;37.20;;;;;;5035887;28;20463;-86
2022/03/09 10:11:49;;;;;;;17.03;11.07;;;14.90;36.50;;;;;;5032115;28;20567;-87
2022/03/09 10:14:15;;;;;;;19.60;13.10;;;14.20;36.50;;;;;;5047372;28;20955;-87
2022/03/09 10:17:02;;;;;;;18.17;12.15;;;12.80;37.10;;;;;;5033209;28;20260;-86
2022/03/09 10:19:33;;;;;;;17.33;11.50;;;12.60;37.80;;;;;;5037218;28;20560;-87
2022/03/09 10:22:19;;;;;;;17.55;11.38;;;12.40;38.60;;;;;;5028594;28;20628;-85
2022/03/09 10:24:44;;;;;;;16.52;12.15;;;12.00;39.80;;;;;;5036810;28;20181;-84
2022/03/09 10:27:10;;;;;;;18.27;11.73;;;11.80;39.40;;;;;;5035005;28;20196;-86
2022/03/09 10:29:36;;;;;;;20.70;12.60;;;11.40;40.30;;;;;;5045510;28;20184;-86
2022/03/09 10:32:02;;;;;;;18.90;12.30;;;11.40;40.80;;;;;;5030304;28;20448;-86
2022/03/09 10:34:29;;;;;;;16.53;10.83;;;11.20;41.50;;;;;;5028898;28;20181;-85
2022/03/09 10:37:03;;;;;;;17.20;11.60;;;10.90;41.10;;;;;;5028489;28;20443;-84
2022/03/09 10:39:37;;;;;;;15.55;10.52;;;10.90;42.10;;;;;;5046062;28;20175;-86
2022/03/09 10:42:04;;;;;;;16.67;11.27;;;10.80;42.20;;;;;;5028626;28;21098;-85
2022/03/09 10:44:48;;;;;;;17.63;10.80;;;10.90;41.70;;;;;;5042664;28;20181;-83
2022/03/09 10:47:37;;;;;;;26.75;12.85;;;11.10;42.30;;;;;;5024388;28;20273;-86
2022/03/09 10:50:11;;;;;;;20.13;11.65;;;10.90;42.00;;;;;;5025152;28;20209;-84
2022/03/09 10:52:50;;;;;;;20.17;11.30;;;10.90;42.30;;;;;;5043506;28;20205;-85
2022/03/09 10:55:36;;;;;;;16.20;11.05;;;11.10;42.10;;;;;;5027681;28;20734;-83
2022/03/09 10:58:22;;;;;;;16.05;11.40;;;11.30;43.80;;;;;;5023944;28;20219;-85
2022/03/09 11:00:55;;;;;;;21.92;13.50;;;11.30;44.00;;;;;;5041736;28;20178;-85
2022/03/09 11:03:23;;;;;;;18.48;12.82;;;11.30;44.50;;;;;;5033816;28;20238;-88
2022/03/09 11:05:53;;;;;;;20.30;12.02;;;11.20;43.90;;;;;;5039582;28;20195;-88
2022/03/09 11:08:24;;;;;;;20.63;13.35;;;11.30;45.30;;;;;;5043104;28;20197;-83
2022/03/09 11:10:50;;;;;;;20.20;11.60;;;11.30;43.60;;;;;;5024156;28;20327;-87
2022/03/09 11:13:17;;;;;;;18.35;12.88;;;11.30;44.10;;;;;;5043091;28;20726;-86
2022/03/09 11:15:47;;;;;;;22.20;12.60;;;11.20;44.90;;;;;;5034562;28;20181;-85
2022/03/09 11:18:20;;;;;;;18.73;11.18;;;11.30;44.50;;;;;;5033498;28;20201;-86
2022/03/09 11:20:51;;;;;;;22.83;12.68;;;11.00;43.80;;;;;;5031657;28;20193;-86
2022/03/09 11:23:18;;;;;;;30.63;11.63;;;10.80;44.10;;;;;;5040797;28;20193;-83
2022/03/09 11:25:52;;;;;;;17.92;11.05;;;10.80;44.80;;;;;;5043400;28;20189;-83
2022/03/09 11:28:24;;;;;;;21.90;12.40;;;10.70;45.10;;;;;;5026589;28;20181;-87
2022/03/09 11:31:01;;;;;;;15.48;9.93;;;10.80;44.80;;;;;;5039140;28;20276;-85
2022/03/09 11:33:43;;;;;;;43.90;28.63;;;10.80;45.20;;;;;;5024769;28;20204;-83
2022/03/09 11:36:26;;;;;;;46.40;34.70;;;11.00;45.60;;;;;;5039736;28;20236;-84
2022/03/09 11:39:17;;;;;;;18.67;10.95;;;11.10;44.60;;;;;;5041309;28;20208;-84
2022/03/09 11:41:42;;;;;;;20.77;10.75;;;11.20;44.00;;;;;;5038415;28;20204;-84
2022/03/09 11:44:24;;;;;;;34.20;19.17;;;11.20;44.60;;;;;;5028863;28;20556;-86
2022/03/09 11:47:01;;;;;;;30.13;16.95;;;11.20;45.00;;;;;;5045970;28;20169;-85
2022/03/09 11:49:52;;;;;;;25.77;16.80;;;11.50;45.00;;;;;;5023911;28;21968;-85
2022/03/09 11:52:27;;;;;;;25.10;12.60;;;11.70;43.10;;;;;;5027578;28;20233;-83
2022/03/09 11:54:55;;;;;;;15.02;10.77;;;11.80;41.70;;;;;;5046296;28;20184;-86
2022/03/09 11:57:23;;;;;;;17.52;12.80;;;11.70;42.00;;;;;;5046702;28;20190;-86
2022/03/09 12:00:08;;;;;;;16.58;11.35;;;11.80;41.80;;;;;;5028495;28;20197;-86
2022/03/09 12:02:42;;;;;;;21.58;12.48;;;11.70;40.60;;;;;;5042557;28;20197;-85
2022/03/09 12:05:28;;;;;;;22.67;12.40;;;11.60;40.60;;;;;;5040351;28;20196;-85
2022/03/09 12:08:02;;;;;;;21.00;11.75;;;11.70;41.20;;;;;;5029607;28;20233;-84
2022/03/09 12:10:50;;;;;;;20.17;11.80;;;11.80;40.40;;;;;;5045604;28;20196;-90
2022/03/09 12:13:33;;;;;;;18.17;10.73;;;11.80;40.40;;;;;;5027043;28;20310;-87
2022/03/09 12:16:15;;;;;;;19.10;12.27;;;12.00;41.10;;;;;;5030500;28;21735;-89
2022/03/09 12:18:40;;;;;;;19.52;11.68;;;12.10;39.70;;;;;;5028583;28;20212;-85
2022/03/09 12:21:07;;;;;;;23.20;11.13;;;12.10;40.40;;;;;;5043430;28;20201;-90
2022/03/09 12:23:34;;;;;;;19.58;11.95;;;12.10;39.80;;;;;;5026914;28;20698;-84
2022/03/09 12:26:01;;;;;;;18.52;11.05;;;12.00;39.10;;;;;;5031279;28;20284;-87
2022/03/09 12:28:33;;;;;;;18.15;12.27;;;11.90;40.80;;;;;;5047311;28;20278;-88
2022/03/09 12:31:02;;;;;;;20.60;11.13;;;12.10;39.50;;;;;;5044898;28;20596;-86
2022/03/09 12:33:42;;;;;;;22.48;11.40;;;12.10;40.40;;;;;;5061519;28;20244;-88
2022/03/09 12:36:32;;;;;;;16.63;12.07;;;12.20;40.60;;;;;;5024207;28;20259;-86
2022/03/09 12:39:01;;;;;;;17.30;10.57;;;12.60;40.00;;;;;;5031933;28;20649;-90
2022/03/09 12:41:40;;;;;;;19.25;11.30;;;12.60;38.60;;;;;;5029758;28;20198;-88
2022/03/09 12:44:08;;;;;;;18.70;10.90;;;12.40;38.70;;;;;;5024290;28;20205;-87
2022/03/09 12:46:37;;;;;;;20.73;10.82;;;12.50;38.10;;;;;;5029702;28;20320;-87
2022/03/09 12:49:15;;;;;;;22.48;12.20;;;12.50;39.00;;;;;;5045055;28;20189;-88